Alcova, Wyoming
Current Conditions -  °F | °C
As of 5:53 AM on Wednesday 22 Oct 2014 (Local Time) from KCPR Reporting Station
Clear Clear  
Wind Chill: 32°   Ceiling: Unl
Heat Index: 38°   Visibility: 10mi
Dew Point: 21°   Wind: 8mph
Humidity: 51%   Direction: 270°W
Pressure: 30.06"   Gusts: NA
Location:  42.55°N, 106.72°W
Report Text: KCPR 221153Z 27007KT 10SM CLR 03/M06 A3006 RMK AO2 SLP150 T00331061 10100 20017 53013
Loading
Personal Weather Stations






























Interactive Weather Map
Tropical Storm Tracking
New forecast layout! Learn more

10-Day Weather Forecast

Advertisements
Track Severe Weather on mobile